Time,TemperatureF,DewpointF,PressureIn,WindDirection,WindDirectionDegrees,WindSpeedMPH,WindSpeedGustMPH,Humidity,HourlyPrecipIn,Conditions,Clouds,dailyrainin,SolarRadiationWatts/m^2,SoftwareType,DateUTC
2013-05-27 00:02:00,53.0,28.0,-100.00,SE,132,6.0,12.0,38,0.00,,,0.00,0.000000,,2013-05-27 05:02:00,
2013-05-27 00:22:00,49.0,25.0,-100.00,SE,124,5.0,10.0,39,0.00,,,0.00,0.000000,,2013-05-27 05:22:00,
2013-05-27 00:32:00,49.0,25.0,-100.00,SE,124,5.0,10.0,39,0.00,,,0.00,0.000000,,2013-05-27 05:32:00,
2013-05-27 00:42:00,49.0,25.0,-100.00,SE,124,5.0,10.0,39,0.00,,,0.00,0.000000,,2013-05-27 05:42:00,
2013-05-27 00:52:00,49.0,25.0,-100.00,SE,124,5.0,10.0,39,0.00,,,0.00,0.000000,,2013-05-27 05:52:00,
2013-05-27 01:01:00,49.0,25.0,-100.00,SE,124,5.0,10.0,39,0.00,,,0.00,0.000000,,2013-05-27 06:01:00,
2013-05-27 01:22:00,47.0,26.0,-100.00,ESE,105,5.0,9.0,43,0.00,,,0.00,0.000000,,2013-05-27 06:22:00,
2013-05-27 01:32:00,47.0,26.0,-100.00,ESE,105,5.0,9.0,43,0.00,,,0.00,0.000000,,2013-05-27 06:32:00,
2013-05-27 01:42:00,47.0,26.0,-100.00,ESE,105,5.0,9.0,43,0.00,,,0.00,0.000000,,2013-05-27 06:42:00,
2013-05-27 01:52:00,47.0,26.0,-100.00,ESE,105,5.0,9.0,43,0.00,,,0.00,0.000000,,2013-05-27 06:52:00,
2013-05-27 02:02:00,47.0,26.0,-100.00,ESE,105,5.0,9.0,43,0.00,,,0.00,0.000000,,2013-05-27 07:02:00,
2013-05-27 02:21:00,46.0,25.0,-100.00,ESE,114,6.0,12.0,44,0.00,,,0.00,0.000000,,2013-05-27 07:21:00,
2013-05-27 02:32:00,46.0,25.0,-100.00,ESE,114,6.0,12.0,44,0.00,,,0.00,0.000000,,2013-05-27 07:32:00,
2013-05-27 02:42:00,46.0,25.0,-100.00,ESE,114,6.0,12.0,44,0.00,,,0.00,0.000000,,2013-05-27 07:42:00,
2013-05-27 02:52:00,46.0,25.0,-100.00,ESE,114,6.0,12.0,44,0.00,,,0.00,0.000000,,2013-05-27 07:52:00,
2013-05-27 03:02:00,46.0,25.0,-100.00,ESE,114,6.0,12.0,44,0.00,,,0.00,0.000000,,2013-05-27 08:02:00,
2013-05-27 03:22:00,46.0,25.0,-100.00,ESE,118,7.0,11.0,44,0.00,,,0.00,0.000000,,2013-05-27 08:22:00,
2013-05-27 03:33:00,46.0,25.0,-100.00,ESE,118,7.0,11.0,44,0.00,,,0.00,0.000000,,2013-05-27 08:33:00,
2013-05-27 03:42:00,46.0,25.0,-100.00,ESE,118,7.0,11.0,44,0.00,,,0.00,0.000000,,2013-05-27 08:42:00,
2013-05-27 03:52:00,46.0,25.0,-100.00,ESE,118,7.0,11.0,44,0.00,,,0.00,0.000000,,2013-05-27 08:52:00,
2013-05-27 04:02:00,46.0,25.0,-100.00,ESE,118,7.0,11.0,44,0.00,,,0.00,0.000000,,2013-05-27 09:02:00,
2013-05-27 04:22:00,45.0,25.0,-100.00,ESE,110,4.0,11.0,46,0.00,,,0.00,0.000000,,2013-05-27 09:22:00,
2013-05-27 04:33:00,45.0,25.0,-100.00,ESE,110,4.0,11.0,46,0.00,,,0.00,0.000000,,2013-05-27 09:33:00,
2013-05-27 04:42:00,45.0,25.0,-100.00,ESE,110,4.0,11.0,46,0.00,,,0.00,0.000000,,2013-05-27 09:42:00,
2013-05-27 04:53:00,45.0,25.0,-100.00,ESE,110,4.0,11.0,46,0.00,,,0.00,0.000000,,2013-05-27 09:53:00,
2013-05-27 05:02:00,45.0,25.0,-100.00,ESE,110,4.0,11.0,46,0.00,,,0.00,0.000000,,2013-05-27 10:02:00,
2013-05-27 05:23:00,44.0,26.0,-100.00,ESE,114,3.0,8.0,49,0.00,,,0.00,0.000000,,2013-05-27 10:23:00,
2013-05-27 05:32:00,44.0,26.0,-100.00,ESE,114,3.0,8.0,49,0.00,,,0.00,0.000000,,2013-05-27 10:32:00,
2013-05-27 05:42:00,44.0,26.0,-100.00,ESE,114,3.0,8.0,49,0.00,,,0.00,0.000000,,2013-05-27 10:42:00,
2013-05-27 05:52:00,44.0,26.0,-100.00,ESE,114,3.0,8.0,49,0.00,,,0.00,0.000000,,2013-05-27 10:52:00,
2013-05-27 06:02:00,44.0,26.0,-100.00,ESE,114,3.0,8.0,49,0.00,,,0.00,0.000000,,2013-05-27 11:02:00,
2013-05-27 06:22:00,44.0,29.0,-100.00,ESE,109,3.0,5.0,55,0.00,,,0.00,32.000000,,2013-05-27 11:22:00,
2013-05-27 06:32:00,44.0,29.0,-100.00,ESE,109,3.0,5.0,55,0.00,,,0.00,32.000000,,2013-05-27 11:32:00,
2013-05-27 06:42:00,44.0,29.0,-100.00,ESE,109,3.0,5.0,55,0.00,,,0.00,32.000000,,2013-05-27 11:42:00,
2013-05-27 06:52:00,44.0,29.0,-100.00,ESE,109,3.0,5.0,55,0.00,,,0.00,32.000000,,2013-05-27 11:52:00,
2013-05-27 07:01:00,44.0,29.0,-100.00,ESE,109,3.0,5.0,55,0.00,,,0.00,32.000000,,2013-05-27 12:01:00,
2013-05-27 07:22:00,48.0,32.0,-100.00,ESE,116,4.0,6.0,53,0.00,,,-99.99,135.000000,,2013-05-27 12:22:00,
2013-05-27 07:32:00,48.0,32.0,-100.00,ESE,116,4.0,6.0,53,0.00,,,-99.99,135.000000,,2013-05-27 12:32:00,
2013-05-27 07:42:00,48.0,32.0,-100.00,ESE,116,4.0,6.0,53,0.00,,,-99.99,135.000000,,2013-05-27 12:42:00,
2013-05-27 07:52:00,48.0,32.0,-100.00,ESE,116,4.0,6.0,53,0.00,,,-99.99,135.000000,,2013-05-27 12:52:00,
2013-05-27 08:01:00,48.0,32.0,-100.00,ESE,116,4.0,6.0,53,0.00,,,-99.99,135.000000,,2013-05-27 13:01:00,
2013-05-27 08:22:00,56.0,36.0,-100.00,SE,133,5.0,10.0,47,0.00,,,0.00,346.000000,,2013-05-27 13:22:00,
2013-05-27 08:32:00,56.0,36.0,-100.00,SE,133,5.0,10.0,47,0.00,,,0.00,346.000000,,2013-05-27 13:32:00,
2013-05-27 08:42:00,56.0,36.0,-100.00,SE,133,5.0,10.0,47,0.00,,,0.00,346.000000,,2013-05-27 13:42:00,
2013-05-27 08:53:00,56.0,36.0,-100.00,SE,133,5.0,10.0,47,0.00,,,0.00,346.000000,,2013-05-27 13:53:00,
2013-05-27 09:01:00,56.0,36.0,-100.00,SE,133,5.0,10.0,47,0.00,,,0.00,346.000000,,2013-05-27 14:01:00,
2013-05-27 09:22:00,60.0,36.0,-100.00,SE,139,7.0,12.0,40,0.00,,,0.00,545.000000,,2013-05-27 14:22:00,
2013-05-27 09:32:00,60.0,36.0,-100.00,SE,139,7.0,12.0,40,0.00,,,0.00,545.000000,,2013-05-27 14:32:00,
2013-05-27 09:42:00,60.0,36.0,-100.00,SE,139,7.0,12.0,40,0.00,,,0.00,545.000000,,2013-05-27 14:42:00,
2013-05-27 09:52:00,60.0,36.0,-100.00,SE,139,7.0,12.0,40,0.00,,,0.00,545.000000,,2013-05-27 14:52:00,
2013-05-27 10:01:00,60.0,36.0,-100.00,SE,139,7.0,12.0,40,0.00,,,0.00,545.000000,,2013-05-27 15:01:00,
2013-05-27 10:22:00,62.0,37.0,-100.00,SE,139,8.0,16.0,39,0.00,,,0.00,734.000000,,2013-05-27 15:22:00,
2013-05-27 10:33:00,62.0,37.0,-100.00,SE,139,8.0,16.0,39,0.00,,,0.00,734.000000,,2013-05-27 15:33:00,
2013-05-27 10:43:00,62.0,37.0,-100.00,SE,139,8.0,16.0,39,0.00,,,0.00,734.000000,,2013-05-27 15:43:00,
2013-05-27 10:53:00,62.0,37.0,-100.00,SE,139,8.0,16.0,39,0.00,,,0.00,734.000000,,2013-05-27 15:53:00,
2013-05-27 11:03:00,62.0,37.0,-100.00,SE,139,8.0,16.0,39,0.00,,,0.00,734.000000,,2013-05-27 16:03:00,
2013-05-27 11:23:00,65.0,40.0,-100.00,ESE,122,8.0,17.0,40,0.00,,,0.00,858.000000,,2013-05-27 16:23:00,
2013-05-27 11:33:00,65.0,40.0,-100.00,ESE,122,8.0,17.0,40,0.00,,,0.00,858.000000,,2013-05-27 16:33:00,
2013-05-27 11:42:00,65.0,40.0,-100.00,ESE,122,8.0,17.0,40,0.00,,,0.00,858.000000,,2013-05-27 16:42:00,
2013-05-27 11:53:00,65.0,40.0,-100.00,ESE,122,8.0,17.0,40,0.00,,,0.00,858.000000,,2013-05-27 16:53:00,
2013-05-27 12:02:00,65.0,40.0,-100.00,ESE,122,8.0,17.0,40,0.00,,,0.00,858.000000,,2013-05-27 17:02:00,
2013-05-27 12:22:00,67.0,40.0,-100.00,ESE,121,9.0,19.0,37,0.00,,,0.00,912.000000,,2013-05-27 17:22:00,
2013-05-27 12:32:00,67.0,40.0,-100.00,ESE,121,9.0,19.0,37,0.00,,,0.00,912.000000,,2013-05-27 17:32:00,
2013-05-27 12:43:00,67.0,40.0,-100.00,ESE,121,9.0,19.0,37,0.00,,,0.00,912.000000,,2013-05-27 17:43:00,
2013-05-27 12:52:00,67.0,40.0,-100.00,ESE,121,9.0,19.0,37,0.00,,,0.00,912.000000,,2013-05-27 17:52:00,
2013-05-27 13:02:00,67.0,40.0,-100.00,ESE,121,9.0,19.0,37,0.00,,,0.00,912.000000,,2013-05-27 18:02:00,
2013-05-27 13:22:00,68.0,35.0,-100.00,SSE,148,11.0,20.0,30,0.00,,,0.00,1009.000000,,2013-05-27 18:22:00,
2013-05-27 13:32:00,68.0,35.0,-100.00,SSE,148,11.0,20.0,30,0.00,,,0.00,1009.000000,,2013-05-27 18:32:00,
2013-05-27 13:42:00,68.0,35.0,-100.00,SSE,148,11.0,20.0,30,0.00,,,0.00,1009.000000,,2013-05-27 18:42:00,
2013-05-27 13:52:00,68.0,35.0,-100.00,SSE,148,11.0,20.0,30,0.00,,,0.00,1009.000000,,2013-05-27 18:52:00,
2013-05-27 14:01:00,68.0,35.0,-100.00,SSE,148,11.0,20.0,30,0.00,,,0.00,1009.000000,,2013-05-27 19:01:00,
2013-05-27 14:22:00,71.0,35.0,-100.00,SE,126,7.0,19.0,27,0.00,,,0.00,1017.000000,,2013-05-27 19:22:00,
2013-05-27 14:32:00,71.0,35.0,-100.00,SE,126,7.0,19.0,27,0.00,,,0.00,1017.000000,,2013-05-27 19:32:00,
2013-05-27 14:42:00,71.0,35.0,-100.00,SE,126,7.0,19.0,27,0.00,,,0.00,1017.000000,,2013-05-27 19:42:00,
2013-05-27 14:52:00,71.0,35.0,-100.00,SE,126,7.0,19.0,27,0.00,,,0.00,1017.000000,,2013-05-27 19:52:00,
2013-05-27 15:01:00,71.0,35.0,-100.00,SE,126,7.0,19.0,27,0.00,,,0.00,1017.000000,,2013-05-27 20:01:00,
2013-05-27 15:22:00,71.0,37.0,-100.00,SE,139,9.0,17.0,29,0.00,,,0.00,956.000000,,2013-05-27 20:22:00,
2013-05-27 15:32:00,71.0,37.0,-100.00,SE,139,9.0,17.0,29,0.00,,,0.00,956.000000,,2013-05-27 20:32:00,
2013-05-27 15:42:00,71.0,37.0,-100.00,SE,139,9.0,17.0,29,0.00,,,0.00,956.000000,,2013-05-27 20:42:00,
2013-05-27 15:52:00,71.0,37.0,-100.00,SE,139,9.0,17.0,29,0.00,,,0.00,956.000000,,2013-05-27 20:52:00,
2013-05-27 16:01:00,71.0,37.0,-100.00,SE,139,9.0,17.0,29,0.00,,,0.00,956.000000,,2013-05-27 21:01:00,
2013-05-27 16:22:00,69.0,39.0,-100.00,SE,133,9.0,18.0,33,0.00,,,0.00,555.000000,,2013-05-27 21:22:00,
2013-05-27 16:33:00,69.0,39.0,-100.00,SE,133,9.0,18.0,33,0.00,,,0.00,555.000000,,2013-05-27 21:33:00,
2013-05-27 16:43:00,69.0,39.0,-100.00,SE,133,9.0,18.0,33,0.00,,,0.00,555.000000,,2013-05-27 21:43:00,
2013-05-27 16:53:00,69.0,39.0,-100.00,SE,133,9.0,18.0,33,0.00,,,0.00,555.000000,,2013-05-27 21:53:00,
2013-05-27 17:02:00,69.0,39.0,-100.00,SE,133,9.0,18.0,33,0.00,,,0.00,555.000000,,2013-05-27 22:02:00,
2013-05-27 17:23:00,68.0,39.0,-100.00,SE,139,8.0,17.0,34,0.00,,,0.00,419.000000,,2013-05-27 22:23:00,
2013-05-27 17:33:00,68.0,39.0,-100.00,SE,139,8.0,17.0,34,0.00,,,0.00,419.000000,,2013-05-27 22:33:00,
2013-05-27 17:42:00,68.0,39.0,-100.00,SE,139,8.0,17.0,34,0.00,,,0.00,419.000000,,2013-05-27 22:42:00,
2013-05-27 17:53:00,68.0,39.0,-100.00,SE,139,8.0,17.0,34,0.00,,,0.00,419.000000,,2013-05-27 22:53:00,
2013-05-27 18:02:00,68.0,39.0,-100.00,SE,139,8.0,17.0,34,0.00,,,0.00,419.000000,,2013-05-27 23:02:00,
2013-05-27 18:22:00,69.0,37.0,-100.00,SE,132,8.0,19.0,31,0.00,,,0.00,579.000000,,2013-05-27 23:22:00,
2013-05-27 18:32:00,69.0,37.0,-100.00,SE,132,8.0,19.0,31,0.00,,,0.00,579.000000,,2013-05-27 23:32:00,
2013-05-27 18:42:00,69.0,37.0,-100.00,SE,132,8.0,19.0,31,0.00,,,0.00,579.000000,,2013-05-27 23:42:00,
2013-05-27 18:52:00,69.0,37.0,-100.00,SE,132,8.0,19.0,31,0.00,,,0.00,579.000000,,2013-05-27 23:52:00,
2013-05-27 19:01:00,69.0,37.0,-100.00,SE,132,8.0,19.0,31,0.00,,,0.00,579.000000,,2013-05-28 00:01:00,
2013-05-27 19:22:00,68.0,36.0,-100.00,SE,125,7.0,17.0,31,0.00,,,0.00,361.000000,,2013-05-28 00:22:00,
2013-05-27 19:32:00,68.0,36.0,-100.00,SE,125,7.0,17.0,31,0.00,,,0.00,361.000000,,2013-05-28 00:32:00,
2013-05-27 19:42:00,68.0,36.0,-100.00,SE,125,7.0,17.0,31,0.00,,,0.00,361.000000,,2013-05-28 00:42:00,
2013-05-27 19:52:00,68.0,36.0,-100.00,SE,125,7.0,17.0,31,0.00,,,0.00,361.000000,,2013-05-28 00:52:00,
2013-05-27 20:01:00,68.0,36.0,-100.00,SE,125,7.0,17.0,31,0.00,,,0.00,361.000000,,2013-05-28 01:01:00,
2013-05-27 20:22:00,63.0,36.0,-100.00,SE,127,5.0,12.0,36,0.00,,,0.00,118.000000,,2013-05-28 01:22:00,
2013-05-27 20:32:00,63.0,36.0,-100.00,SE,127,5.0,12.0,36,0.00,,,0.00,118.000000,,2013-05-28 01:32:00,
2013-05-27 20:42:00,63.0,36.0,-100.00,SE,127,5.0,12.0,36,0.00,,,0.00,118.000000,,2013-05-28 01:42:00,
2013-05-27 20:52:00,63.0,36.0,-100.00,SE,127,5.0,12.0,36,0.00,,,0.00,118.000000,,2013-05-28 01:52:00,
2013-05-27 21:02:00,63.0,36.0,-100.00,SE,127,5.0,12.0,36,0.00,,,0.00,118.000000,,2013-05-28 02:02:00,
2013-05-27 21:22:00,59.0,37.0,-100.00,ESE,114,5.0,10.0,43,0.00,,,0.00,15.000000,,2013-05-28 02:22:00,
2013-05-27 21:32:00,59.0,37.0,-100.00,ESE,114,5.0,10.0,43,0.00,,,0.00,15.000000,,2013-05-28 02:32:00,
2013-05-27 21:42:00,59.0,37.0,-100.00,ESE,114,5.0,10.0,43,0.00,,,0.00,15.000000,,2013-05-28 02:42:00,
2013-05-27 21:52:00,59.0,37.0,-100.00,ESE,114,5.0,10.0,43,0.00,,,0.00,15.000000,,2013-05-28 02:52:00,
2013-05-27 22:01:00,59.0,37.0,-100.00,ESE,114,5.0,10.0,43,0.00,,,0.00,15.000000,,2013-05-28 03:01:00,
2013-05-27 22:22:00,58.0,36.0,-100.00,SE,125,6.0,9.0,44,0.00,,,0.00,0.000000,,2013-05-28 03:22:00,
2013-05-27 22:33:00,58.0,36.0,-100.00,SE,125,6.0,9.0,44,0.00,,,0.00,0.000000,,2013-05-28 03:33:00,
2013-05-27 22:43:00,58.0,36.0,-100.00,SE,125,6.0,9.0,44,0.00,,,0.00,0.000000,,2013-05-28 03:43:00,
2013-05-27 22:53:00,58.0,36.0,-100.00,SE,125,6.0,9.0,44,0.00,,,0.00,0.000000,,2013-05-28 03:53:00,
2013-05-27 23:02:00,58.0,36.0,-100.00,SE,125,6.0,9.0,44,0.00,,,0.00,0.000000,,2013-05-28 04:02:00,
2013-05-27 23:23:00,57.0,34.0,-100.00,SE,130,6.0,11.0,41,0.00,,,0.00,0.000000,,2013-05-28 04:23:00,
2013-05-27 23:33:00,57.0,34.0,-100.00,SE,130,6.0,11.0,41,0.00,,,0.00,0.000000,,2013-05-28 04:33:00,
2013-05-27 23:43:00,57.0,34.0,-100.00,SE,130,6.0,11.0,41,0.00,,,0.00,0.000000,,2013-05-28 04:43:00,
2013-05-27 23:53:00,57.0,34.0,-100.00,SE,130,6.0,11.0,41,0.00,,,0.00,0.000000,,2013-05-28 04:53:00,